Time;durP1;ratioP1;P1;durP2;ratioP2;P2;SDS_P1;SDS_P2;PMS_P1;PMS_P2;Temp;Humidity;BMP_temperature;BMP_pressure;BME280_temperature;BME280_humidity;BME280_pressure;Samples;Min_cycle;Max_cycle;Signal;HPM_P1;HPM_P2
2021/06/06 00:00:51;;;;;;;72.10;43.65;;;15.20;99.90;;;;;;5017764;28;20061;-58
2021/06/06 00:03:47;;;;;;;71.03;44.17;;;15.30;99.90;;;;;;5011398;28;20033;-58
2021/06/06 00:06:17;;;;;;;71.30;47.15;;;15.20;99.90;;;;;;5013996;28;20169;-54
2021/06/06 00:08:43;;;;;;;78.85;47.80;;;15.20;99.90;;;;;;5010533;28;20029;-57
2021/06/06 00:11:16;;;;;;;80.05;47.95;;;15.20;99.90;;;;;;5015703;28;20026;-57
2021/06/06 00:13:43;;;;;;;70.15;47.60;;;15.10;99.90;;;;;;5026399;28;20049;-58
2021/06/06 00:16:12;;;;;;;78.10;49.47;;;15.10;99.90;;;;;;5017819;28;20033;-57
2021/06/06 00:18:39;;;;;;;76.28;49.72;;;15.10;99.90;;;;;;5025996;28;20045;-58
2021/06/06 00:21:06;;;;;;;80.55;49.42;;;15.10;99.90;;;;;;5019096;28;20036;-59
2021/06/06 00:23:32;;;;;;;76.03;47.20;;;15.10;99.90;;;;;;5027258;28;20033;-58
2021/06/06 00:25:59;;;;;;;79.68;49.38;;;15.10;99.90;;;;;;5015974;28;20049;-56
2021/06/06 00:28:25;;;;;;;84.47;49.47;;;15.10;99.90;;;;;;5014162;28;20041;-56
2021/06/06 00:30:51;;;;;;;73.63;48.50;;;15.10;99.90;;;;;;5004766;28;20515;-59
2021/06/06 00:33:17;;;;;;;75.45;46.92;;;15.10;99.90;;;;;;5012839;28;20026;-58
2021/06/06 00:35:56;;;;;;;76.20;47.30;;;15.00;99.90;;;;;;5021116;28;20491;-58
2021/06/06 00:38:21;;;;;;;78.53;46.22;;;15.00;99.90;;;;;;4982563;28;20046;-57
2021/06/06 00:40:47;;;;;;;78.28;47.83;;;15.00;99.90;;;;;;5011458;28;20077;-57
2021/06/06 00:43:13;;;;;;;78.03;49.70;;;15.00;99.90;;;;;;5018225;28;20117;-57
2021/06/06 00:45:39;;;;;;;82.38;49.67;;;15.00;99.90;;;;;;5007903;28;20073;-57
2021/06/06 00:48:07;;;;;;;95.60;54.97;;;15.00;99.90;;;;;;5021380;28;20192;-58
2021/06/06 00:50:36;;;;;;;92.70;53.75;;;15.00;99.90;;;;;;5008938;28;20480;-57
2021/06/06 00:53:06;;;;;;;98.93;59.35;;;15.00;99.90;;;;;;5006292;28;20034;-56
2021/06/06 00:55:35;;;;;;;100.80;59.50;;;14.90;99.90;;;;;;5006016;28;20074;-57
2021/06/06 00:58:04;;;;;;;109.75;63.35;;;14.90;99.90;;;;;;5002518;28;20044;-58
2021/06/06 01:00:48;;;;;;;109.60;59.35;;;14.90;99.90;;;;;;5012522;28;20583;-57
2021/06/06 01:03:14;;;;;;;106.45;61.78;;;14.90;99.90;;;;;;5003503;28;20064;-57
2021/06/06 01:05:51;;;;;;;108.10;62.53;;;14.90;99.90;;;;;;5010353;28;20045;-57
2021/06/06 01:08:20;;;;;;;99.18;57.45;;;14.80;99.90;;;;;;5014785;28;20105;-57
2021/06/06 01:10:49;;;;;;;93.82;53.15;;;14.80;99.90;;;;;;5006999;28;20492;-58
2021/06/06 01:13:40;;;;;;;81.00;48.75;;;14.80;99.90;;;;;;5015726;28;20498;-57
2021/06/06 01:16:34;;;;;;;89.20;50.22;;;14.70;99.90;;;;;;5014909;28;20627;-55
2021/06/06 01:19:05;;;;;;;100.90;55.85;;;14.80;99.90;;;;;;5018411;28;20064;-56
2021/06/06 01:22:04;;;;;;;110.38;63.50;;;14.80;99.90;;;;;;5010416;28;20638;-55
2021/06/06 01:24:40;;;;;;;111.32;62.63;;;14.80;99.90;;;;;;5010946;28;20038;-59
2021/06/06 01:27:13;;;;;;;115.72;62.80;;;14.80;99.90;;;;;;5006640;28;20028;-57
2021/06/06 01:30:03;;;;;;;107.80;62.63;;;14.70;99.90;;;;;;5007692;28;20395;-57
2021/06/06 01:32:37;;;;;;;109.80;61.92;;;14.70;99.90;;;;;;4997980;28;20049;-55
2021/06/06 01:35:17;;;;;;;104.90;57.78;;;14.70;99.90;;;;;;4995852;28;20040;-57
2021/06/06 01:37:48;;;;;;;99.32;53.75;;;14.70;99.90;;;;;;5001373;28;20029;-58
2021/06/06 01:40:18;;;;;;;95.22;55.30;;;14.70;99.90;;;;;;4990903;28;20034;-58
2021/06/06 01:42:49;;;;;;;105.70;56.88;;;14.70;99.90;;;;;;4990609;28;20027;-58
2021/06/06 01:45:22;;;;;;;108.22;60.63;;;14.70;99.90;;;;;;4989295;28;20045;-57
2021/06/06 01:47:50;;;;;;;110.20;62.30;;;14.50;99.90;;;;;;5002561;28;20043;-54
2021/06/06 01:50:24;;;;;;;115.22;65.80;;;14.60;99.90;;;;;;4989686;28;20034;-54
2021/06/06 01:52:51;;;;;;;126.95;65.88;;;14.60;99.90;;;;;;5005135;28;20038;-58
2021/06/06 01:55:20;;;;;;;103.70;59.60;;;14.60;99.90;;;;;;4992058;28;20391;-57
2021/06/06 01:57:48;;;;;;;112.85;61.75;;;14.50;99.90;;;;;;5000201;28;20060;-58
2021/06/06 02:00:23;;;;;;;121.25;64.05;;;14.60;99.90;;;;;;4993847;28;20023;-57
2021/06/06 02:02:49;;;;;;;113.97;63.63;;;14.50;99.90;;;;;;4997078;28;20022;-57
2021/06/06 02:05:16;;;;;;;115.60;65.72;;;14.50;99.90;;;;;;4989480;28;20642;-57
2021/06/06 02:07:44;;;;;;;105.05;60.22;;;14.50;99.90;;;;;;4992901;28;20061;-59
2021/06/06 02:10:22;;;;;;;95.65;58.00;;;14.40;99.90;;;;;;4997037;28;20095;-58
2021/06/06 02:12:52;;;;;;;100.03;58.08;;;14.40;99.90;;;;;;4999158;28;20026;-58
2021/06/06 02:15:30;;;;;;;97.20;56.00;;;14.30;99.90;;;;;;4999964;28;20030;-57
2021/06/06 02:17:58;;;;;;;104.75;57.88;;;14.30;99.90;;;;;;4987404;28;20028;-58
2021/06/06 02:20:29;;;;;;;107.85;57.22;;;14.40;99.90;;;;;;4991671;28;20080;-58
2021/06/06 02:22:56;;;;;;;103.50;57.88;;;14.30;99.90;;;;;;5014382;28;20022;-57
2021/06/06 02:25:22;;;;;;;101.38;56.17;;;14.40;99.90;;;;;;4984831;28;20129;-57
2021/06/06 02:28:09;;;;;;;89.45;52.60;;;14.40;99.90;;;;;;4990510;28;20038;-57
2021/06/06 02:30:44;;;;;;;91.93;51.53;;;14.40;99.90;;;;;;4979286;28;20455;-58
2021/06/06 02:33:32;;;;;;;83.72;47.60;;;14.40;99.90;;;;;;5017564;28;20561;-58
2021/06/06 02:36:01;;;;;;;84.28;50.72;;;14.30;99.90;;;;;;5011553;28;20033;-58
2021/06/06 02:38:38;;;;;;;92.85;52.22;;;14.30;99.90;;;;;;5020871;28;20034;-55
2021/06/06 02:41:24;;;;;;;88.15;48.83;;;14.20;99.90;;;;;;5015723;28;20024;-57
2021/06/06 02:44:00;;;;;;;91.53;51.67;;;14.20;99.90;;;;;;5014868;28;20026;-57
2021/06/06 02:46:26;;;;;;;84.57;48.75;;;14.20;99.90;;;;;;5011409;28;20132;-58
2021/06/06 02:48:58;;;;;;;88.05;52.22;;;14.20;99.90;;;;;;5004572;28;20036;-58
2021/06/06 02:51:26;;;;;;;96.55;51.78;;;14.20;99.90;;;;;;5008514;28;20084;-59
2021/06/06 02:54:08;;;;;;;94.82;52.97;;;14.20;99.90;;;;;;5017771;28;20058;-59
2021/06/06 02:56:41;;;;;;;87.28;49.63;;;14.20;99.90;;;;;;5013360;28;20129;-57
2021/06/06 02:59:14;;;;;;;91.97;51.05;;;14.30;99.90;;;;;;5014942;28;20030;-57
2021/06/06 03:01:46;;;;;;;84.85;50.55;;;14.30;99.90;;;;;;5013010;28;20030;-55
2021/06/06 03:04:16;;;;;;;80.43;48.40;;;14.30;99.90;;;;;;5021256;28;20030;-59
2021/06/06 03:06:52;;;;;;;87.57;52.35;;;14.30;99.90;;;;;;5016469;28;20515;-56
2021/06/06 03:09:21;;;;;;;86.75;50.70;;;14.20;99.90;;;;;;4999002;28;20088;-58
2021/06/06 03:11:50;;;;;;;89.47;53.03;;;14.30;99.90;;;;;;5009159;28;20038;-57
2021/06/06 03:14:23;;;;;;;79.80;49.67;;;14.30;99.90;;;;;;5004193;28;20022;-57
2021/06/06 03:17:13;;;;;;;82.32;49.53;;;14.30;99.90;;;;;;5011687;28;20111;-59
2021/06/06 03:19:43;;;;;;;82.57;49.90;;;14.30;99.90;;;;;;5011433;28;20046;-59
2021/06/06 03:22:13;;;;;;;76.88;48.75;;;14.30;99.90;;;;;;5024390;28;20451;-58
2021/06/06 03:24:44;;;;;;;75.70;47.25;;;14.30;99.90;;;;;;5016478;28;20029;-58
2021/06/06 03:27:12;;;;;;;81.93;47.10;;;14.30;99.90;;;;;;5020055;28;20076;-59
2021/06/06 03:29:58;;;;;;;71.65;46.40;;;14.30;99.90;;;;;;5016620;28;20029;-54
2021/06/06 03:32:32;;;;;;;76.85;47.30;;;14.30;99.90;;;;;;4985377;28;20077;-58
2021/06/06 03:34:58;;;;;;;73.20;47.28;;;14.30;99.90;;;;;;4988980;28;20085;-57
2021/06/06 03:37:25;;;;;;;75.03;49.53;;;14.30;99.90;;;;;;5000810;28;20034;-56
2021/06/06 03:39:52;;;;;;;74.32;46.53;;;14.30;99.90;;;;;;5000356;28;20105;-59
2021/06/06 03:42:17;;;;;;;74.93;46.80;;;14.30;99.90;;;;;;4995307;28;20061;-57
2021/06/06 03:44:43;;;;;;;71.55;46.22;;;14.30;99.90;;;;;;4998956;28;20113;-58
2021/06/06 03:47:09;;;;;;;72.97;46.75;;;14.30;99.90;;;;;;5000734;28;20030;-58
2021/06/06 03:49:35;;;;;;;68.20;45.03;;;14.30;99.90;;;;;;4998148;28;20041;-59
2021/06/06 03:52:00;;;;;;;70.22;43.15;;;14.30;99.90;;;;;;5005372;28;20034;-58
2021/06/06 03:54:26;;;;;;;62.50;43.05;;;14.30;99.90;;;;;;4998687;28;20479;-58
2021/06/06 03:56:52;;;;;;;71.15;43.67;;;14.30;99.90;;;;;;5000474;28;20109;-58
2021/06/06 03:59:18;;;;;;;68.93;43.47;;;14.20;99.90;;;;;;4991707;28;20524;-59
2021/06/06 04:01:44;;;;;;;65.63;41.38;;;14.20;99.90;;;;;;5004263;28;20399;-58
2021/06/06 04:04:10;;;;;;;66.53;42.90;;;14.20;99.90;;;;;;4999532;28;20030;-57
2021/06/06 04:06:36;;;;;;;62.75;42.17;;;14.20;99.90;;;;;;4989957;28;20045;-58
2021/06/06 04:09:04;;;;;;;63.95;44.83;;;14.20;99.90;;;;;;4995564;28;20611;-58
2021/06/06 04:11:30;;;;;;;68.65;44.72;;;14.20;99.90;;;;;;4990153;28;20038;-58
2021/06/06 04:13:55;;;;;;;69.03;44.10;;;14.20;99.90;;;;;;4989843;28;20036;-58
2021/06/06 04:16:21;;;;;;;72.38;46.08;;;14.10;99.90;;;;;;4990846;28;20088;-56
2021/06/06 04:18:47;;;;;;;60.97;42.63;;;14.20;99.90;;;;;;4997410;28;20018;-58
2021/06/06 04:21:25;;;;;;;69.60;43.70;;;14.10;99.90;;;;;;4997453;28;20499;-56
2021/06/06 04:23:51;;;;;;;76.82;47.25;;;14.10;99.90;;;;;;4995890;28;20026;-59
2021/06/06 04:26:18;;;;;;;67.90;45.65;;;14.10;99.90;;;;;;4998380;28;20034;-57
2021/06/06 04:28:43;;;;;;;72.28;46.60;;;14.00;99.90;;;;;;5001017;28;20026;-56
2021/06/06 04:31:10;;;;;;;68.63;47.78;;;14.10;99.90;;;;;;4995902;28;20209;-58
2021/06/06 04:33:36;;;;;;;73.55;50.97;;;14.10;99.90;;;;;;4991000;28;20026;-58
2021/06/06 04:36:02;;;;;;;68.20;45.70;;;14.10;99.90;;;;;;4991284;28;20369;-56
2021/06/06 04:38:30;;;;;;;69.75;46.83;;;14.10;99.90;;;;;;4997690;28;20385;-59
2021/06/06 04:40:59;;;;;;;74.75;47.08;;;14.10;99.90;;;;;;4992632;28;20131;-57
2021/06/06 04:43:24;;;;;;;77.75;47.97;;;14.10;99.90;;;;;;4995017;28;20392;-57
2021/06/06 04:45:51;;;;;;;67.68;45.58;;;14.10;99.90;;;;;;4995785;28;20149;-54
2021/06/06 04:48:24;;;;;;;61.75;42.45;;;14.20;99.90;;;;;;5000866;28;20641;-56
2021/06/06 04:50:51;;;;;;;68.00;47.13;;;14.20;99.90;;;;;;4992508;28;20041;-57
2021/06/06 04:53:16;;;;;;;69.22;45.00;;;14.10;99.90;;;;;;4990597;28;20034;-57
2021/06/06 04:55:43;;;;;;;62.45;43.03;;;14.20;99.90;;;;;;4994909;28;20035;-59
2021/06/06 04:58:16;;;;;;;58.28;40.22;;;14.20;99.90;;;;;;5002281;28;20104;-57
2021/06/06 05:00:43;;;;;;;53.47;38.25;;;14.20;99.90;;;;;;4997734;28;20495;-57
2021/06/06 05:03:10;;;;;;;50.58;37.83;;;14.10;99.90;;;;;;5002755;28;20026;-55
2021/06/06 05:05:36;;;;;;;56.42;38.17;;;14.10;99.90;;;;;;4999727;28;20097;-55
2021/06/06 05:08:04;;;;;;;54.88;39.80;;;14.20;99.90;;;;;;4998564;28;20120;-58
2021/06/06 05:10:33;;;;;;;53.25;37.70;;;14.20;99.90;;;;;;4993724;28;20049;-57
2021/06/06 05:12:59;;;;;;;51.55;36.60;;;14.20;99.90;;;;;;4996964;28;20029;-57
2021/06/06 05:15:26;;;;;;;52.42;35.15;;;14.20;99.90;;;;;;4998702;28;20045;-58
2021/06/06 05:17:52;;;;;;;48.38;34.72;;;14.20;99.90;;;;;;4997330;28;20035;-60
2021/06/06 05:20:22;;;;;;;47.47;32.80;;;14.30;99.90;;;;;;4992200;28;20030;-59
2021/06/06 05:22:48;;;;;;;51.97;33.63;;;14.30;99.90;;;;;;4999950;28;20050;-58
2021/06/06 05:25:14;;;;;;;49.15;35.30;;;14.30;99.90;;;;;;4996126;28;20069;-56
2021/06/06 05:27:41;;;;;;;50.10;35.38;;;14.20;99.90;;;;;;4997453;28;20121;-59
2021/06/06 05:30:09;;;;;;;49.45;33.60;;;14.20;99.90;;;;;;4989528;28;20022;-56
2021/06/06 05:32:35;;;;;;;52.80;33.30;;;14.20;99.90;;;;;;4994571;28;20034;-58
2021/06/06 05:35:01;;;;;;;44.35;32.33;;;14.30;99.90;;;;;;4990271;28;20045;-58
2021/06/06 05:37:27;;;;;;;48.33;32.95;;;14.30;99.90;;;;;;4998215;28;20035;-58
2021/06/06 05:39:53;;;;;;;43.42;31.20;;;14.30;99.90;;;;;;4997969;28;20110;-58
2021/06/06 05:42:19;;;;;;;47.78;32.08;;;14.30;99.90;;;;;;4987683;28;20029;-57
2021/06/06 05:44:44;;;;;;;48.47;30.83;;;14.30;99.90;;;;;;4995846;28;20141;-58
2021/06/06 05:47:10;;;;;;;44.38;31.17;;;14.30;99.90;;;;;;4990138;28;20083;-58
2021/06/06 05:49:35;;;;;;;47.10;30.08;;;14.30;99.90;;;;;;4992370;28;20427;-57
2021/06/06 05:52:01;;;;;;;42.22;30.77;;;14.30;99.90;;;;;;4994485;28;20025;-58
2021/06/06 05:54:27;;;;;;;51.78;33.95;;;14.40;99.90;;;;;;4992623;28;20038;-58
2021/06/06 05:56:52;;;;;;;58.70;37.30;;;14.40;99.90;;;;;;4998841;28;20034;-59
2021/06/06 05:59:18;;;;;;;58.55;34.70;;;14.40;99.90;;;;;;4992824;28;20029;-58
2021/06/06 06:01:44;;;;;;;64.47;38.50;;;14.40;99.90;;;;;;5000307;28;20034;-58
2021/06/06 06:04:09;;;;;;;67.10;38.55;;;14.50;99.90;;;;;;4988915;28;20084;-57
2021/06/06 06:06:35;;;;;;;68.85;38.33;;;14.40;99.90;;;;;;4990328;28;20038;-60
2021/06/06 06:09:01;;;;;;;76.78;40.10;;;14.40;99.90;;;;;;4994801;28;20039;-58
2021/06/06 06:11:28;;;;;;;70.63;39.08;;;14.40;99.90;;;;;;4989161;28;20042;-57
2021/06/06 06:13:54;;;;;;;81.25;37.65;;;14.30;99.90;;;;;;5000829;28;20053;-56
2021/06/06 06:16:23;;;;;;;69.43;36.25;;;14.40;99.90;;;;;;4994496;28;20033;-57
2021/06/06 06:18:49;;;;;;;71.55;38.50;;;14.40;99.90;;;;;;4999432;28;20018;-58
2021/06/06 06:21:21;;;;;;;63.88;34.53;;;14.50;99.90;;;;;;4997845;28;20037;-55
2021/06/06 06:23:46;;;;;;;73.13;39.03;;;14.50;99.90;;;;;;4993715;28;20061;-57
2021/06/06 06:26:12;;;;;;;70.15;36.33;;;14.50;99.90;;;;;;4988796;28;20073;-58
2021/06/06 06:28:38;;;;;;;62.65;32.70;;;14.60;99.90;;;;;;4998390;28;20551;-56
2021/06/06 06:31:04;;;;;;;75.85;36.90;;;14.60;99.90;;;;;;4993174;28;20117;-55
2021/06/06 06:33:30;;;;;;;74.40;38.65;;;14.60;99.90;;;;;;4994331;28;20109;-56
2021/06/06 06:35:55;;;;;;;63.92;33.50;;;14.60;99.90;;;;;;4995078;28;20088;-56
2021/06/06 06:38:22;;;;;;;52.25;31.38;;;14.60;99.90;;;;;;4998448;28;20044;-54
2021/06/06 06:40:48;;;;;;;53.88;31.30;;;14.60;99.90;;;;;;4990994;28;20027;-58
2021/06/06 06:43:13;;;;;;;43.03;27.80;;;14.60;99.90;;;;;;4984588;28;20570;-58
2021/06/06 06:45:43;;;;;;;43.90;28.48;;;14.50;99.90;;;;;;4987756;28;20050;-58
2021/06/06 06:48:15;;;;;;;37.78;26.23;;;14.60;99.90;;;;;;4989336;28;20420;-57
2021/06/06 06:50:41;;;;;;;41.55;27.58;;;14.60;99.90;;;;;;4989989;28;20038;-56
2021/06/06 06:53:08;;;;;;;40.97;28.23;;;14.60;99.90;;;;;;5002801;28;20036;-58
2021/06/06 06:55:34;;;;;;;38.60;27.13;;;14.60;99.90;;;;;;4998459;28;20026;-55
2021/06/06 06:58:02;;;;;;;36.03;26.63;;;14.60;99.90;;;;;;5000902;28;20055;-58
2021/06/06 07:00:38;;;;;;;38.88;28.63;;;14.60;99.90;;;;;;4992677;28;20072;-58
2021/06/06 07:03:05;;;;;;;40.45;28.83;;;14.60;99.90;;;;;;4999627;28;20030;-56
2021/06/06 07:05:30;;;;;;;41.30;31.30;;;14.60;99.90;;;;;;4996433;28;20049;-57
2021/06/06 07:07:56;;;;;;;42.67;29.10;;;14.70;99.90;;;;;;4995954;28;20033;-57
2021/06/06 07:10:26;;;;;;;39.50;29.40;;;14.80;99.90;;;;;;4994765;28;20034;-56
2021/06/06 07:12:52;;;;;;;43.53;28.98;;;14.80;99.90;;;;;;5000818;28;20368;-57
2021/06/06 07:15:18;;;;;;;41.88;30.05;;;14.90;99.90;;;;;;5002407;28;20022;-60
2021/06/06 07:17:44;;;;;;;38.38;27.33;;;14.90;99.90;;;;;;5000726;28;20027;-58
2021/06/06 07:20:14;;;;;;;43.80;28.58;;;14.90;99.90;;;;;;4999333;28;20029;-56
2021/06/06 07:22:39;;;;;;;38.30;28.02;;;14.90;99.90;;;;;;4997757;28;20034;-57
2021/06/06 07:25:07;;;;;;;40.38;27.05;;;15.00;99.90;;;;;;4995055;28;20521;-59
2021/06/06 07:27:35;;;;;;;44.92;30.25;;;15.00;99.90;;;;;;4990425;28;20080;-59
2021/06/06 07:30:02;;;;;;;42.17;29.45;;;15.00;99.90;;;;;;4992376;28;20093;-57
2021/06/06 07:32:27;;;;;;;47.47;28.38;;;15.00;99.90;;;;;;5008068;28;20041;-54
2021/06/06 07:34:53;;;;;;;40.33;29.10;;;15.10;99.90;;;;;;4995165;28;20476;-57
2021/06/06 07:37:19;;;;;;;47.40;30.60;;;15.10;99.90;;;;;;4999951;28;20396;-59
2021/06/06 07:39:44;;;;;;;36.85;27.42;;;15.00;99.90;;;;;;4999924;28;20563;-54
2021/06/06 07:42:13;;;;;;;43.28;28.77;;;15.00;99.90;;;;;;4989117;28;20023;-56
2021/06/06 07:44:39;;;;;;;37.60;26.67;;;15.10;99.90;;;;;;4998067;28;20026;-55
2021/06/06 07:47:07;;;;;;;36.35;27.23;;;15.10;99.90;;;;;;5003989;28;20030;-59
2021/06/06 07:49:34;;;;;;;37.60;26.40;;;15.10;99.90;;;;;;4989415;28;20053;-58
2021/06/06 07:52:00;;;;;;;33.42;24.13;;;15.10;99.90;;;;;;4999775;28;20022;-56
2021/06/06 07:54:26;;;;;;;28.17;21.15;;;15.20;99.90;;;;;;4994784;28;20015;-58
2021/06/06 07:56:53;;;;;;;29.23;22.10;;;15.30;99.90;;;;;;5005053;28;20388;-58
2021/06/06 07:59:18;;;;;;;25.65;19.38;;;15.30;99.90;;;;;;4997333;28;20106;-58
2021/06/06 08:01:44;;;;;;;24.45;19.00;;;15.30;99.90;;;;;;5005353;28;20097;-57
2021/06/06 08:04:10;;;;;;;24.52;19.27;;;15.20;99.90;;;;;;5000938;28;20050;-56
2021/06/06 08:06:35;;;;;;;24.67;18.65;;;15.20;99.90;;;;;;4988980;28;20069;-57
2021/06/06 08:09:03;;;;;;;26.60;18.73;;;15.20;99.90;;;;;;4987047;28;20368;-56
2021/06/06 08:11:28;;;;;;;24.23;19.38;;;15.20;99.90;;;;;;4992502;28;20121;-58
2021/06/06 08:13:54;;;;;;;24.27;18.13;;;15.30;99.90;;;;;;4991494;28;20106;-58
2021/06/06 08:16:20;;;;;;;23.27;19.10;;;15.30;99.90;;;;;;4990940;28;20540;-56
2021/06/06 08:18:47;;;;;;;23.48;18.50;;;15.50;99.90;;;;;;5000507;28;20030;-59
2021/06/06 08:21:18;;;;;;;24.15;19.48;;;15.60;99.90;;;;;;4999868;28;20042;-60
2021/06/06 08:23:48;;;;;;;25.25;18.77;;;15.60;99.90;;;;;;4993731;28;20035;-58
2021/06/06 08:26:17;;;;;;;24.13;18.85;;;15.60;99.90;;;;;;4998132;28;20030;-55
2021/06/06 08:28:42;;;;;;;30.70;22.15;;;15.50;99.90;;;;;;5001001;28;20054;-58
2021/06/06 08:31:12;;;;;;;28.08;20.75;;;15.40;99.90;;;;;;4976224;28;20432;-57
2021/06/06 08:33:39;;;;;;;34.50;24.15;;;15.40;99.90;;;;;;4988651;28;20502;-59
2021/06/06 08:36:27;;;;;;;35.72;24.95;;;15.30;99.90;;;;;;4992430;28;20433;-57
2021/06/06 08:38:54;;;;;;;30.77;21.50;;;15.40;99.90;;;;;;5000363;28;20034;-57
2021/06/06 08:41:28;;;;;;;35.45;24.00;;;15.50;99.90;;;;;;4998745;28;20025;-59
2021/06/06 08:44:13;;;;;;;34.00;22.98;;;15.30;99.90;;;;;;5003003;28;20006;-59
2021/06/06 08:47:02;;;;;;;32.90;24.13;;;15.30;99.90;;;;;;4999249;28;20036;-60
2021/06/06 08:49:47;;;;;;;34.50;23.77;;;15.30;99.90;;;;;;4985398;28;20073;-59
2021/06/06 08:52:55;;;;;;;32.00;23.55;;;15.50;99.90;;;;;;4990674;28;20603;-58
2021/06/06 08:55:31;;;;;;;37.92;24.98;;;15.50;99.90;;;;;;4990981;28;20038;-60
2021/06/06 08:58:22;;;;;;;37.65;26.90;;;15.50;99.90;;;;;;5002641;28;20084;-58
2021/06/06 09:00:55;;;;;;;46.55;30.65;;;15.50;99.90;;;;;;4993589;28;20030;-59
2021/06/06 09:03:24;;;;;;;53.35;30.85;;;15.50;99.90;;;;;;4999356;28;20029;-58
2021/06/06 09:06:06;;;;;;;58.33;34.85;;;15.50;99.90;;;;;;4995711;28;20058;-57
2021/06/06 09:08:33;;;;;;;71.68;39.75;;;15.50;99.90;;;;;;4993807;28;20026;-59
2021/06/06 09:11:06;;;;;;;72.28;39.55;;;15.50;99.90;;;;;;4986740;28;20443;-58
2021/06/06 09:13:33;;;;;;;68.47;37.63;;;15.60;99.90;;;;;;4988878;28;20039;-58
2021/06/06 09:16:16;;;;;;;70.00;38.22;;;15.70;99.90;;;;;;4986083;28;20290;-58
2021/06/06 09:18:46;;;;;;;69.65;37.28;;;15.80;99.90;;;;;;4985848;28;20114;-59
2021/06/06 09:21:17;;;;;;;69.22;38.42;;;15.80;99.90;;;;;;4989281;28;20026;-59
2021/06/06 09:23:43;;;;;;;62.63;35.58;;;16.00;99.90;;;;;;4993052;28;20491;-58
2021/06/06 09:26:18;;;;;;;66.40;38.58;;;16.00;99.90;;;;;;4995420;28;20476;-59
2021/06/06 09:29:05;;;;;;;77.03;42.33;;;16.10;99.90;;;;;;4998939;28;20041;-58
2021/06/06 09:31:30;;;;;;;83.88;48.55;;;16.10;99.90;;;;;;4992984;28;20038;-57
2021/06/06 09:33:56;;;;;;;88.75;47.70;;;16.10;99.90;;;;;;5001324;28;20033;-58
2021/06/06 09:36:28;;;;;;;85.22;46.30;;;16.00;99.90;;;;;;5000442;28;20034;-55
2021/06/06 09:39:20;;;;;;;91.75;50.20;;;16.00;99.90;;;;;;4998885;28;20029;-59
2021/06/06 09:41:53;;;;;;;94.70;49.97;;;16.20;99.90;;;;;;4991238;28;20061;-59
2021/06/06 09:44:24;;;;;;;101.73;51.13;;;16.20;99.90;;;;;;4992520;28;20069;-56
2021/06/06 09:46:50;;;;;;;109.25;56.45;;;16.30;99.90;;;;;;4998556;28;20108;-58
2021/06/06 09:49:34;;;;;;;98.28;54.03;;;16.20;99.90;;;;;;4998022;28;20101;-59
2021/06/06 09:52:27;;;;;;;101.88;53.95;;;16.30;99.90;;;;;;4984259;28;20026;-58
2021/06/06 09:54:55;;;;;;;101.75;53.13;;;16.60;99.90;;;;;;4989916;28;20040;-57
2021/06/06 09:57:30;;;;;;;93.13;51.85;;;16.70;99.90;;;;;;4989002;28;20034;-59
2021/06/06 10:00:14;;;;;;;94.63;51.95;;;17.00;99.90;;;;;;4995087;28;20032;-57
2021/06/06 10:02:45;;;;;;;99.22;53.50;;;17.60;99.90;;;;;;5000731;28;20018;-59
2021/06/06 10:05:21;;;;;;;89.50;51.95;;;18.00;99.90;;;;;;4997699;28;20038;-60
2021/06/06 10:08:01;;;;;;;92.78;49.50;;;18.30;99.90;;;;;;4994919;28;20037;-56
2021/06/06 10:10:34;;;;;;;98.35;54.85;;;18.50;99.90;;;;;;4974682;28;20100;-58
2021/06/06 10:13:03;;;;;;;;;;;18.50;99.90;;;;;;4998390;28;20503;-57
2021/06/06 10:15:47;;;;;;;99.55;57.70;;;18.70;99.90;;;;;;5002395;28;20390;-58
2021/06/06 10:18:22;;;;;;;92.90;52.63;;;18.60;99.90;;;;;;4993467;28;20071;-59
2021/06/06 10:20:53;;;;;;;96.30;53.55;;;18.60;99.90;;;;;;4992952;28;20042;-60
2021/06/06 10:23:38;;;;;;;94.88;55.22;;;18.10;99.90;;;;;;5000172;28;20022;-56
2021/06/06 10:26:17;;;;;;;100.43;53.72;;;18.30;99.90;;;;;;4992827;28;20034;-58
2021/06/06 10:28:53;;;;;;;92.07;51.22;;;18.30;99.90;;;;;;4978012;28;20062;-58
2021/06/06 10:31:35;;;;;;;104.07;51.50;;;18.30;99.90;;;;;;4976060;28;20023;-59
2021/06/06 10:34:22;;;;;;;89.22;50.65;;;17.90;99.90;;;;;;4981527;28;20088;-56
2021/06/06 10:36:48;;;;;;;94.55;51.53;;;17.50;99.90;;;;;;4977692;28;20037;-58
2021/06/06 10:39:27;;;;;;;86.43;47.42;;;16.90;99.90;;;;;;4984310;28;20026;-58
2021/06/06 10:42:09;;;;;;;85.93;48.78;;;16.70;99.90;;;;;;4995801;28;20443;-57
2021/06/06 10:45:01;;;;;;;87.75;49.97;;;16.70;99.90;;;;;;4974485;28;20038;-59
2021/06/06 10:47:30;;;;;;;93.43;50.72;;;16.60;99.90;;;;;;4994363;28;20062;-58
2021/06/06 10:50:04;;;;;;;100.68;51.88;;;16.40;99.90;;;;;;4995845;28;20494;-58
2021/06/06 10:52:38;;;;;;;104.85;55.17;;;16.20;99.90;;;;;;4997099;28;20034;-56
2021/06/06 10:55:22;;;;;;;102.22;54.25;;;16.30;99.90;;;;;;4985805;28;20030;-57
2021/06/06 10:57:48;;;;;;;107.97;55.40;;;16.20;99.90;;;;;;4984725;28;20037;-58
2021/06/06 11:00:25;;;;;;;104.47;55.35;;;16.10;99.90;;;;;;4992910;28;20029;-57
2021/06/06 11:02:58;;;;;;;107.70;54.03;;;16.20;99.90;;;;;;4995181;28;20590;-59
2021/06/06 11:05:30;;;;;;;111.90;54.25;;;16.20;99.90;;;;;;4986574;28;20034;-59
2021/06/06 11:07:56;;;;;;;100.50;54.28;;;16.10;99.90;;;;;;4990919;28;20029;-57
2021/06/06 11:10:24;;;;;;;94.82;49.95;;;16.30;99.90;;;;;;4994302;28;20415;-58
2021/06/06 11:12:54;;;;;;;93.40;49.80;;;16.60;99.90;;;;;;4990132;28;20026;-59
2021/06/06 11:15:32;;;;;;;101.90;50.13;;;16.80;99.90;;;;;;4985251;28;20031;-57
2021/06/06 11:18:21;;;;;;;90.03;48.33;;;16.80;99.90;;;;;;4983507;28;20042;-58
2021/06/06 11:20:59;;;;;;;89.22;48.67;;;17.00;99.90;;;;;;4986032;28;20510;-58
2021/06/06 11:23:42;;;;;;;90.47;47.00;;;17.20;99.90;;;;;;4998561;28;20491;-58
2021/06/06 11:26:31;;;;;;;94.32;50.80;;;17.30;99.90;;;;;;4987762;28;20025;-57
2021/06/06 11:29:21;;;;;;;93.10;51.30;;;17.20;99.90;;;;;;4993560;28;20025;-56
2021/06/06 11:32:12;;;;;;;87.97;47.65;;;16.80;99.90;;;;;;5002770;28;20022;-58
2021/06/06 11:34:43;;;;;;;91.13;49.22;;;16.80;99.90;;;;;;4995573;28;20072;-59
2021/06/06 11:37:13;;;;;;;94.55;47.83;;;16.80;99.90;;;;;;5000447;28;20029;-59
2021/06/06 11:39:45;;;;;;;95.30;51.53;;;16.80;99.90;;;;;;4995806;28;20034;-57
2021/06/06 11:42:23;;;;;;;96.93;52.92;;;16.70;99.90;;;;;;5000585;28;20019;-58
2021/06/06 11:44:56;;;;;;;98.32;55.03;;;16.50;99.90;;;;;;4995815;28;20030;-60
2021/06/06 11:47:28;;;;;;;95.82;51.00;;;16.40;99.90;;;;;;4980359;28;20030;-59
2021/06/06 11:50:10;;;;;;;99.97;55.38;;;16.50;99.90;;;;;;4990808;28;20057;-58
2021/06/06 11:52:35;;;;;;;89.78;50.05;;;16.60;99.90;;;;;;4992576;28;20054;-58
2021/06/06 11:55:21;;;;;;;91.00;47.63;;;16.70;99.90;;;;;;4989395;28;20065;-59
2021/06/06 11:57:53;;;;;;;86.07;47.97;;;16.80;99.90;;;;;;4992191;28;20038;-58
2021/06/06 12:00:26;;;;;;;85.38;46.40;;;16.90;99.90;;;;;;4992057;28;20030;-58
2021/06/06 12:02:54;;;;;;;84.53;46.22;;;17.20;99.90;;;;;;4995068;28;20026;-57
2021/06/06 12:05:30;;;;;;;86.88;46.72;;;17.30;99.90;;;;;;4988983;28;20117;-58
2021/06/06 12:08:11;;;;;;;86.82;48.03;;;17.00;99.90;;;;;;4988368;28;20033;-58
2021/06/06 12:10:41;;;;;;;82.63;46.33;;;17.20;99.90;;;;;;4987795;28;20034;-60
2021/06/06 12:13:08;;;;;;;76.47;42.72;;;17.50;99.90;;;;;;4986241;28;20113;-57
2021/06/06 12:15:41;;;;;;;79.68;45.20;;;17.60;99.90;;;;;;4985246;28;20054;-57
2021/06/06 12:18:12;;;;;;;83.80;47.35;;;17.70;99.90;;;;;;4987906;28;20034;-57
2021/06/06 12:20:48;;;;;;;80.40;44.25;;;17.70;99.90;;;;;;4992156;28;20101;-56
2021/06/06 12:23:14;;;;;;;80.25;45.47;;;17.70;99.90;;;;;;4989210;28;20023;-56
2021/06/06 12:25:39;;;;;;;85.55;50.20;;;17.50;99.90;;;;;;4995069;28;20566;-58
2021/06/06 12:28:15;;;;;;;89.60;48.67;;;17.50;99.90;;;;;;4994945;28;20026;-59
2021/06/06 12:30:46;;;;;;;82.43;47.42;;;17.40;99.90;;;;;;4990195;28;20038;-54
2021/06/06 12:33:12;;;;;;;80.53;46.85;;;17.50;99.90;;;;;;4973121;28;20101;-56
2021/06/06 12:35:54;;;;;;;88.82;51.65;;;17.60;99.90;;;;;;4980313;28;20444;-57
2021/06/06 12:38:22;;;;;;;84.28;48.85;;;17.60;99.90;;;;;;4982054;28;20049;-57
2021/06/06 12:40:50;;;;;;;83.90;47.60;;;17.70;99.90;;;;;;4984510;28;20440;-57
2021/06/06 12:43:21;;;;;;;82.65;48.75;;;17.80;99.90;;;;;;4980001;28;20114;-56
2021/06/06 12:45:47;;;;;;;80.93;47.30;;;17.90;99.90;;;;;;4986759;28;20038;-57